sensor_id;sensor_type;location;lat;lon;timestamp;pressure;altitude;pressure_sealevel;temperature;humidity
20895;BME280;10607;42.066;24.742;2022-08-21T00:01:17;97583.22;;;22.84;91.66
20895;BME280;10607;42.066;24.742;2022-08-21T00:03:43;97572.09;;;22.79;90.57
20895;BME280;10607;42.066;24.742;2022-08-21T00:06:08;97573.41;;;22.55;91.91
20895;BME280;10607;42.066;24.742;2022-08-21T00:08:34;97569.31;;;22.51;92.22
20895;BME280;10607;42.066;24.742;2022-08-21T00:11:01;97568.63;;;22.49;93.34
20895;BME280;10607;42.066;24.742;2022-08-21T00:13:26;97559.03;;;22.46;95.80
20895;BME280;10607;42.066;24.742;2022-08-21T00:15:51;97557.06;;;22.48;95.50
20895;BME280;10607;42.066;24.742;2022-08-21T00:18:18;97558.91;;;22.48;96.83
20895;BME280;10607;42.066;24.742;2022-08-21T00:20:45;97562.44;;;22.48;97.25
20895;BME280;10607;42.066;24.742;2022-08-21T00:23:10;97561.28;;;22.51;96.40
20895;BME280;10607;42.066;24.742;2022-08-21T00:25:37;97555.91;;;22.51;95.48
20895;BME280;10607;42.066;24.742;2022-08-21T00:28:03;97558.22;;;22.46;96.66
20895;BME280;10607;42.066;24.742;2022-08-21T00:30:30;97571.75;;;22.44;96.07
20895;BME280;10607;42.066;24.742;2022-08-21T00:32:56;97574.75;;;22.41;94.50
20895;BME280;10607;42.066;24.742;2022-08-21T00:35:28;97562.28;;;22.50;92.68
20895;BME280;10607;42.066;24.742;2022-08-21T00:37:54;97550.72;;;22.49;91.75
20895;BME280;10607;42.066;24.742;2022-08-21T00:40:34;97547.72;;;22.52;91.83
20895;BME280;10607;42.066;24.742;2022-08-21T00:43:02;97532.94;;;22.48;91.89
20895;BME280;10607;42.066;24.742;2022-08-21T00:45:28;97527.69;;;22.47;92.15
20895;BME280;10607;42.066;24.742;2022-08-21T00:47:55;97522.19;;;22.48;92.32
20895;BME280;10607;42.066;24.742;2022-08-21T00:50:21;97532.78;;;22.50;92.59
20895;BME280;10607;42.066;24.742;2022-08-21T00:52:47;97525.59;;;22.50;93.26
20895;BME280;10607;42.066;24.742;2022-08-21T00:55:13;97529.28;;;22.49;95.80
20895;BME280;10607;42.066;24.742;2022-08-21T00:57:47;97526.03;;;22.46;94.88
20895;BME280;10607;42.066;24.742;2022-08-21T01:00:18;97530.13;;;22.40;95.28
20895;BME280;10607;42.066;24.742;2022-08-21T01:02:45;97544.94;;;22.34;96.94
20895;BME280;10607;42.066;24.742;2022-08-21T01:05:11;97537.03;;;22.43;97.71
20895;BME280;10607;42.066;24.742;2022-08-21T01:07:37;97532.09;;;22.38;98.81
20895;BME280;10607;42.066;24.742;2022-08-21T01:10:05;97526.31;;;22.43;96.85
20895;BME280;10607;42.066;24.742;2022-08-21T01:12:31;97528.41;;;22.49;95.22
20895;BME280;10607;42.066;24.742;2022-08-21T01:14:56;97521.50;;;22.46;95.06
20895;BME280;10607;42.066;24.742;2022-08-21T01:17:23;97519.81;;;22.45;95.45
20895;BME280;10607;42.066;24.742;2022-08-21T01:19:48;97512.63;;;22.36;95.18
20895;BME280;10607;42.066;24.742;2022-08-21T01:22:14;97510.78;;;22.36;96.02
20895;BME280;10607;42.066;24.742;2022-08-21T01:24:39;97518.06;;;22.26;96.86
20895;BME280;10607;42.066;24.742;2022-08-21T01:27:05;97505.88;;;22.22;97.59
20895;BME280;10607;42.066;24.742;2022-08-21T01:29:44;97506.31;;;22.27;96.73
20895;BME280;10607;42.066;24.742;2022-08-21T01:32:14;97499.94;;;22.38;95.27
20895;BME280;10607;42.066;24.742;2022-08-21T01:34:43;97492.19;;;22.35;95.89
20895;BME280;10607;42.066;24.742;2022-08-21T01:37:10;97491.31;;;22.34;95.34
20895;BME280;10607;42.066;24.742;2022-08-21T01:39:36;97478.22;;;22.31;96.97
20895;BME280;10607;42.066;24.742;2022-08-21T01:42:01;97492.91;;;22.27;98.04
20895;BME280;10607;42.066;24.742;2022-08-21T01:44:27;97489.66;;;22.24;97.26
20895;BME280;10607;42.066;24.742;2022-08-21T01:46:53;97510.00;;;22.16;96.58
20895;BME280;10607;42.066;24.742;2022-08-21T01:49:19;97522.13;;;22.11;96.70
20895;BME280;10607;42.066;24.742;2022-08-21T01:51:45;97537.34;;;22.20;95.33
20895;BME280;10607;42.066;24.742;2022-08-21T01:54:11;97535.66;;;22.19;93.95
20895;BME280;10607;42.066;24.742;2022-08-21T01:56:39;97539.03;;;22.11;96.24
20895;BME280;10607;42.066;24.742;2022-08-21T01:59:06;97546.25;;;22.11;96.66
20895;BME280;10607;42.066;24.742;2022-08-21T02:01:31;97551.59;;;22.11;95.13
20895;BME280;10607;42.066;24.742;2022-08-21T02:03:57;97543.28;;;22.14;94.94
20895;BME280;10607;42.066;24.742;2022-08-21T02:06:24;97535.50;;;22.21;94.28
20895;BME280;10607;42.066;24.742;2022-08-21T02:08:50;97531.59;;;22.25;94.33
20895;BME280;10607;42.066;24.742;2022-08-21T02:11:16;97538.63;;;22.26;95.46
20895;BME280;10607;42.066;24.742;2022-08-21T02:13:41;97542.88;;;22.28;95.58
20895;BME280;10607;42.066;24.742;2022-08-21T02:16:07;97550.88;;;22.38;93.36
20895;BME280;10607;42.066;24.742;2022-08-21T02:18:34;97557.94;;;22.39;93.52
20895;BME280;10607;42.066;24.742;2022-08-21T02:21:00;97550.06;;;22.28;96.88
20895;BME280;10607;42.066;24.742;2022-08-21T02:23:25;97553.56;;;22.19;97.68
20895;BME280;10607;42.066;24.742;2022-08-21T02:25:51;97561.34;;;22.12;97.44
20895;BME280;10607;42.066;24.742;2022-08-21T02:28:16;97565.84;;;22.21;97.99
20895;BME280;10607;42.066;24.742;2022-08-21T02:30:46;97574.44;;;22.15;97.85
20895;BME280;10607;42.066;24.742;2022-08-21T02:33:12;97578.00;;;22.06;96.63
20895;BME280;10607;42.066;24.742;2022-08-21T02:35:39;97585.16;;;22.05;97.03
20895;BME280;10607;42.066;24.742;2022-08-21T02:38:13;97589.97;;;21.92;98.00
20895;BME280;10607;42.066;24.742;2022-08-21T02:40:41;97584.75;;;21.81;99.39
20895;BME280;10607;42.066;24.742;2022-08-21T02:43:07;97588.69;;;21.76;99.35
20895;BME280;10607;42.066;24.742;2022-08-21T02:45:34;97590.28;;;21.79;100.00
20895;BME280;10607;42.066;24.742;2022-08-21T02:48:03;97596.88;;;21.75;100.00
20895;BME280;10607;42.066;24.742;2022-08-21T02:50:33;97596.72;;;21.76;100.00
20895;BME280;10607;42.066;24.742;2022-08-21T02:52:59;97586.00;;;21.76;100.00
20895;BME280;10607;42.066;24.742;2022-08-21T02:55:27;97581.34;;;21.79;100.00
20895;BME280;10607;42.066;24.742;2022-08-21T02:57:54;97572.47;;;21.78;99.53
20895;BME280;10607;42.066;24.742;2022-08-21T03:00:21;97584.75;;;21.81;98.73
20895;BME280;10607;42.066;24.742;2022-08-21T03:02:48;97597.03;;;21.83;97.89
20895;BME280;10607;42.066;24.742;2022-08-21T03:05:14;97595.03;;;21.95;97.06
20895;BME280;10607;42.066;24.742;2022-08-21T03:07:41;97594.34;;;22.03;96.40
20895;BME280;10607;42.066;24.742;2022-08-21T03:10:08;97582.66;;;21.94;95.92
20895;BME280;10607;42.066;24.742;2022-08-21T03:12:34;97593.50;;;21.92;97.49
20895;BME280;10607;42.066;24.742;2022-08-21T03:15:02;97601.97;;;21.98;97.12
20895;BME280;10607;42.066;24.742;2022-08-21T03:17:28;97596.31;;;22.10;95.77
20895;BME280;10607;42.066;24.742;2022-08-21T03:19:53;97589.00;;;22.03;97.93
20895;BME280;10607;42.066;24.742;2022-08-21T03:22:19;97595.22;;;21.93;99.79
20895;BME280;10607;42.066;24.742;2022-08-21T03:24:44;97599.88;;;21.91;99.21
20895;BME280;10607;42.066;24.742;2022-08-21T03:27:10;97597.03;;;21.93;99.73
20895;BME280;10607;42.066;24.742;2022-08-21T03:29:37;97595.91;;;21.86;100.00
20895;BME280;10607;42.066;24.742;2022-08-21T03:32:03;97608.47;;;21.85;100.00
20895;BME280;10607;42.066;24.742;2022-08-21T03:34:29;97608.59;;;21.84;98.93
20895;BME280;10607;42.066;24.742;2022-08-21T03:36:54;97606.88;;;21.83;98.69
20895;BME280;10607;42.066;24.742;2022-08-21T03:39:19;97605.06;;;21.83;98.24
20895;BME280;10607;42.066;24.742;2022-08-21T03:41:45;97600.25;;;21.87;97.00
20895;BME280;10607;42.066;24.742;2022-08-21T03:44:10;97607.47;;;21.96;96.47
20895;BME280;10607;42.066;24.742;2022-08-21T03:46:36;97599.84;;;22.01;94.67
20895;BME280;10607;42.066;24.742;2022-08-21T03:49:02;97604.50;;;21.89;94.25
20895;BME280;10607;42.066;24.742;2022-08-21T03:51:27;97601.81;;;21.80;94.88
20895;BME280;10607;42.066;24.742;2022-08-21T03:53:53;97607.75;;;21.73;96.20
20895;BME280;10607;42.066;24.742;2022-08-21T03:56:19;97601.13;;;21.77;96.61
20895;BME280;10607;42.066;24.742;2022-08-21T03:58:45;97615.63;;;21.85;95.76
20895;BME280;10607;42.066;24.742;2022-08-21T04:01:10;97608.28;;;21.87;95.89
20895;BME280;10607;42.066;24.742;2022-08-21T04:03:37;97611.97;;;21.76;94.47
20895;BME280;10607;42.066;24.742;2022-08-21T04:06:03;97609.72;;;21.91;95.23
20895;BME280;10607;42.066;24.742;2022-08-21T04:08:28;97607.59;;;21.75;95.79
20895;BME280;10607;42.066;24.742;2022-08-21T04:10:56;97605.06;;;21.73;97.28
20895;BME280;10607;42.066;24.742;2022-08-21T04:13:23;97601.53;;;21.83;99.70
20895;BME280;10607;42.066;24.742;2022-08-21T04:15:49;97609.56;;;21.83;99.38
20895;BME280;10607;42.066;24.742;2022-08-21T04:18:16;97601.38;;;21.74;99.02
20895;BME280;10607;42.066;24.742;2022-08-21T04:20:43;97602.53;;;21.62;99.50
20895;BME280;10607;42.066;24.742;2022-08-21T04:23:09;97600.38;;;21.66;99.76
20895;BME280;10607;42.066;24.742;2022-08-21T04:25:35;97607.16;;;21.60;100.00
20895;BME280;10607;42.066;24.742;2022-08-21T04:30:27;97597.16;;;21.62;100.00
20895;BME280;10607;42.066;24.742;2022-08-21T04:32:52;97600.38;;;21.66;100.00
20895;BME280;10607;42.066;24.742;2022-08-21T04:35:21;97608.72;;;21.72;100.00
20895;BME280;10607;42.066;24.742;2022-08-21T04:37:48;97597.28;;;21.61;100.00
20895;BME280;10607;42.066;24.742;2022-08-21T04:40:16;97584.47;;;21.54;100.00
20895;BME280;10607;42.066;24.742;2022-08-21T04:42:47;97590.53;;;21.56;100.00
20895;BME280;10607;42.066;24.742;2022-08-21T04:45:22;97588.09;;;21.53;100.00
20895;BME280;10607;42.066;24.742;2022-08-21T04:47:49;97584.00;;;21.49;100.00
20895;BME280;10607;42.066;24.742;2022-08-21T04:50:16;97576.28;;;21.46;100.00
20895;BME280;10607;42.066;24.742;2022-08-21T04:52:41;97582.88;;;21.42;100.00
20895;BME280;10607;42.066;24.742;2022-08-21T04:55:07;97585.13;;;21.47;99.90
20895;BME280;10607;42.066;24.742;2022-08-21T04:57:34;97582.34;;;21.48;99.93
20895;BME280;10607;42.066;24.742;2022-08-21T05:00:00;97579.78;;;21.47;99.91
20895;BME280;10607;42.066;24.742;2022-08-21T05:02:26;97583.47;;;21.46;100.00
20895;BME280;10607;42.066;24.742;2022-08-21T05:04:53;97576.28;;;21.46;100.00
20895;BME280;10607;42.066;24.742;2022-08-21T05:07:23;97578.81;;;21.48;100.00
20895;BME280;10607;42.066;24.742;2022-08-21T05:09:50;97579.66;;;21.48;100.00
20895;BME280;10607;42.066;24.742;2022-08-21T05:12:16;97571.63;;;21.48;100.00
20895;BME280;10607;42.066;24.742;2022-08-21T05:14:42;97566.13;;;21.50;100.00
20895;BME280;10607;42.066;24.742;2022-08-21T05:17:08;97563.88;;;21.55;100.00
20895;BME280;10607;42.066;24.742;2022-08-21T05:19:34;97562.19;;;21.54;100.00
20895;BME280;10607;42.066;24.742;2022-08-21T05:22:00;97556.97;;;21.52;100.00
20895;BME280;10607;42.066;24.742;2022-08-21T05:24:26;97565.56;;;21.46;100.00
20895;BME280;10607;42.066;24.742;2022-08-21T05:26:52;97560.78;;;21.50;100.00
20895;BME280;10607;42.066;24.742;2022-08-21T05:29:18;97557.69;;;21.54;100.00
20895;BME280;10607;42.066;24.742;2022-08-21T05:31:44;97567.97;;;21.59;98.77
20895;BME280;10607;42.066;24.742;2022-08-21T05:34:11;97571.22;;;21.63;99.55
20895;BME280;10607;42.066;24.742;2022-08-21T05:36:36;97574.44;;;21.66;99.31
20895;BME280;10607;42.066;24.742;2022-08-21T05:39:02;97575.00;;;21.70;97.44
20895;BME280;10607;42.066;24.742;2022-08-21T05:41:28;97571.09;;;21.64;97.48
20895;BME280;10607;42.066;24.742;2022-08-21T05:43:53;97575.56;;;21.64;97.89
20895;BME280;10607;42.066;24.742;2022-08-21T05:46:19;97577.41;;;21.63;99.54
20895;BME280;10607;42.066;24.742;2022-08-21T05:48:44;97572.06;;;21.63;100.00
20895;BME280;10607;42.066;24.742;2022-08-21T05:51:13;97575.44;;;21.65;98.76
20895;BME280;10607;42.066;24.742;2022-08-21T05:53:39;97577.53;;;21.62;100.00
20895;BME280;10607;42.066;24.742;2022-08-21T05:56:07;97578.13;;;21.65;100.00
20895;BME280;10607;42.066;24.742;2022-08-21T05:58:33;97588.84;;;21.65;99.91
20895;BME280;10607;42.066;24.742;2022-08-21T06:01:00;97597.28;;;21.70;98.36
20895;BME280;10607;42.066;24.742;2022-08-21T06:03:30;97598.69;;;21.74;98.68
20895;BME280;10607;42.066;24.742;2022-08-21T06:05:56;97596.19;;;21.73;99.62
20895;BME280;10607;42.066;24.742;2022-08-21T06:08:23;97588.56;;;21.78;99.76
20895;BME280;10607;42.066;24.742;2022-08-21T06:10:50;97587.16;;;21.84;99.09
20895;BME280;10607;42.066;24.742;2022-08-21T06:13:18;97597.59;;;21.87;100.00
20895;BME280;10607;42.066;24.742;2022-08-21T06:15:44;97602.09;;;21.86;99.37
20895;BME280;10607;42.066;24.742;2022-08-21T06:18:10;97593.50;;;21.92;97.79
20895;BME280;10607;42.066;24.742;2022-08-21T06:20:36;97610.03;;;21.98;96.65
20895;BME280;10607;42.066;24.742;2022-08-21T06:23:02;97596.06;;;22.04;96.34
20895;BME280;10607;42.066;24.742;2022-08-21T06:25:28;97592.25;;;22.06;97.33
20895;BME280;10607;42.066;24.742;2022-08-21T06:28:04;97589.44;;;22.08;95.42
20895;BME280;10607;42.066;24.742;2022-08-21T06:30:30;97597.03;;;22.12;94.34
20895;BME280;10607;42.066;24.742;2022-08-21T06:32:55;97589.72;;;22.24;94.89
20895;BME280;10607;42.066;24.742;2022-08-21T06:35:21;97583.94;;;22.29;95.08
20895;BME280;10607;42.066;24.742;2022-08-21T06:37:46;97591.09;;;22.38;93.59
20895;BME280;10607;42.066;24.742;2022-08-21T06:40:11;97587.97;;;22.43;93.59
20895;BME280;10607;42.066;24.742;2022-08-21T06:42:37;97586.28;;;22.51;92.72
20895;BME280;10607;42.066;24.742;2022-08-21T06:45:03;97584.00;;;22.56;91.97
20895;BME280;10607;42.066;24.742;2022-08-21T06:47:29;97576.38;;;22.62;92.67
20895;BME280;10607;42.066;24.742;2022-08-21T06:49:54;97569.84;;;22.74;93.02
20895;BME280;10607;42.066;24.742;2022-08-21T06:52:20;97565.31;;;22.74;92.83
20895;BME280;10607;42.066;24.742;2022-08-21T06:54:45;97564.72;;;22.81;91.94
20895;BME280;10607;42.066;24.742;2022-08-21T06:57:10;97560.91;;;22.83;88.18
20895;BME280;10607;42.066;24.742;2022-08-21T06:59:36;97560.44;;;22.88;89.65
20895;BME280;10607;42.066;24.742;2022-08-21T07:02:01;97564.69;;;22.90;90.81
20895;BME280;10607;42.066;24.742;2022-08-21T07:04:27;97562.03;;;22.90;92.89
20895;BME280;10607;42.066;24.742;2022-08-21T07:06:52;97563.00;;;22.89;92.13
20895;BME280;10607;42.066;24.742;2022-08-21T07:09:18;97568.34;;;22.99;92.64
20895;BME280;10607;42.066;24.742;2022-08-21T07:11:46;97561.00;;;23.01;91.18
20895;BME280;10607;42.066;24.742;2022-08-21T07:14:13;97564.63;;;23.10;93.46
20895;BME280;10607;42.066;24.742;2022-08-21T07:16:39;97561.25;;;23.08;93.41
20895;BME280;10607;42.066;24.742;2022-08-21T07:19:04;97555.84;;;23.17;93.85
20895;BME280;10607;42.066;24.742;2022-08-21T07:21:30;97558.06;;;23.22;93.36
20895;BME280;10607;42.066;24.742;2022-08-21T07:23:55;97551.97;;;23.30;94.51
20895;BME280;10607;42.066;24.742;2022-08-21T07:26:22;97560.25;;;23.36;93.35
20895;BME280;10607;42.066;24.742;2022-08-21T07:28:48;97553.25;;;23.44;92.00
20895;BME280;10607;42.066;24.742;2022-08-21T07:31:16;97555.50;;;23.48;90.43
20895;BME280;10607;42.066;24.742;2022-08-21T07:33:43;97558.13;;;23.58;92.68
20895;BME280;10607;42.066;24.742;2022-08-21T07:36:09;97550.97;;;23.67;91.88
20895;BME280;10607;42.066;24.742;2022-08-21T07:38:35;97551.63;;;23.79;93.20
20895;BME280;10607;42.066;24.742;2022-08-21T07:41:01;97557.59;;;23.72;88.30
20895;BME280;10607;42.066;24.742;2022-08-21T07:43:28;97558.28;;;23.74;86.13
20895;BME280;10607;42.066;24.742;2022-08-21T07:45:54;97548.19;;;23.86;85.97
20895;BME280;10607;42.066;24.742;2022-08-21T07:48:21;97543.72;;;23.95;84.10
20895;BME280;10607;42.066;24.742;2022-08-21T07:50:46;97548.31;;;24.03;82.55
20895;BME280;10607;42.066;24.742;2022-08-21T07:53:12;97546.31;;;24.23;85.44
20895;BME280;10607;42.066;24.742;2022-08-21T07:55:37;97547.28;;;24.22;86.16
20895;BME280;10607;42.066;24.742;2022-08-21T07:58:03;97555.28;;;24.13;85.51
20895;BME280;10607;42.066;24.742;2022-08-21T08:00:28;97555.16;;;24.15;86.83
20895;BME280;10607;42.066;24.742;2022-08-21T08:02:55;97554.88;;;24.26;85.36
20895;BME280;10607;42.066;24.742;2022-08-21T08:05:26;97553.72;;;24.29;86.71
20895;BME280;10607;42.066;24.742;2022-08-21T08:07:52;97553.25;;;24.33;86.58
20895;BME280;10607;42.066;24.742;2022-08-21T08:10:18;97548.34;;;24.29;85.67
20895;BME280;10607;42.066;24.742;2022-08-21T08:12:44;97545.97;;;24.26;85.51
20895;BME280;10607;42.066;24.742;2022-08-21T08:15:15;97542.50;;;24.33;85.09
20895;BME280;10607;42.066;24.742;2022-08-21T08:17:40;97541.34;;;24.36;86.99
20895;BME280;10607;42.066;24.742;2022-08-21T08:20:07;97548.38;;;24.37;87.00
20895;BME280;10607;42.066;24.742;2022-08-21T08:22:34;97543.56;;;24.41;86.61
20895;BME280;10607;42.066;24.742;2022-08-21T08:24:59;97546.63;;;24.46;87.48
20895;BME280;10607;42.066;24.742;2022-08-21T08:27:25;97545.06;;;24.61;89.12
20895;BME280;10607;42.066;24.742;2022-08-21T08:29:50;97536.03;;;24.70;88.39
20895;BME280;10607;42.066;24.742;2022-08-21T08:32:16;97544.81;;;24.72;88.98
20895;BME280;10607;42.066;24.742;2022-08-21T08:34:42;97541.78;;;24.75;87.19
20895;BME280;10607;42.066;24.742;2022-08-21T08:37:09;97530.69;;;24.79;88.67
20895;BME280;10607;42.066;24.742;2022-08-21T08:39:35;97532.41;;;24.88;89.73
20895;BME280;10607;42.066;24.742;2022-08-21T08:42:27;97533.97;;;24.98;87.42
20895;BME280;10607;42.066;24.742;2022-08-21T08:47:29;97521.22;;;25.09;87.88
20895;BME280;10607;42.066;24.742;2022-08-21T08:50:10;97526.53;;;25.27;88.56
20895;BME280;10607;42.066;24.742;2022-08-21T08:53:07;97517.97;;;25.31;87.23
20895;BME280;10607;42.066;24.742;2022-08-21T08:55:39;97519.13;;;25.29;85.69
20895;BME280;10607;42.066;24.742;2022-08-21T08:58:05;97513.06;;;25.27;88.36
20895;BME280;10607;42.066;24.742;2022-08-21T09:00:31;97517.81;;;25.33;86.02
20895;BME280;10607;42.066;24.742;2022-08-21T09:02:59;97514.75;;;25.36;86.34
20895;BME280;10607;42.066;24.742;2022-08-21T09:05:29;97512.44;;;25.41;86.74
20895;BME280;10607;42.066;24.742;2022-08-21T09:15:53;97512.72;;;25.30;84.73
20895;BME280;10607;42.066;24.742;2022-08-21T09:18:51;97515.41;;;25.30;87.21
20895;BME280;10607;42.066;24.742;2022-08-21T09:24:34;97502.63;;;25.32;86.40
20895;BME280;10607;42.066;24.742;2022-08-21T09:27:15;97505.19;;;25.42;86.19
20895;BME280;10607;42.066;24.742;2022-08-21T09:29:47;97497.09;;;25.42;81.34
20895;BME280;10607;42.066;24.742;2022-08-21T09:32:18;97500.47;;;25.44;82.45
20895;BME280;10607;42.066;24.742;2022-08-21T09:37:29;97480.44;;;25.46;82.41
20895;BME280;10607;42.066;24.742;2022-08-21T09:39:56;97483.97;;;25.39;82.01
20895;BME280;10607;42.066;24.742;2022-08-21T09:42:31;97494.72;;;25.30;82.52
20895;BME280;10607;42.066;24.742;2022-08-21T09:45:13;97493.00;;;25.21;84.66
20895;BME280;10607;42.066;24.742;2022-08-21T09:47:40;97489.09;;;25.15;82.16
20895;BME280;10607;42.066;24.742;2022-08-21T09:50:26;97489.44;;;25.12;83.17
20895;BME280;10607;42.066;24.742;2022-08-21T09:52:58;97489.25;;;25.06;84.24
20895;BME280;10607;42.066;24.742;2022-08-21T09:55:32;97495.97;;;25.02;83.80
20895;BME280;10607;42.066;24.742;2022-08-21T09:58:35;97497.94;;;24.91;81.81
20895;BME280;10607;42.066;24.742;2022-08-21T10:01:04;97499.94;;;24.81;84.58
20895;BME280;10607;42.066;24.742;2022-08-21T10:03:30;97498.22;;;24.80;85.84
20895;BME280;10607;42.066;24.742;2022-08-21T10:06:07;97500.25;;;24.86;85.54
20895;BME280;10607;42.066;24.742;2022-08-21T10:08:37;97494.56;;;24.89;86.16
20895;BME280;10607;42.066;24.742;2022-08-21T10:11:08;97500.97;;;24.96;85.34
20895;BME280;10607;42.066;24.742;2022-08-21T10:18:59;97493.31;;;24.75;85.41
20895;BME280;10607;42.066;24.742;2022-08-21T10:27:22;97494.09;;;24.60;88.30
20895;BME280;10607;42.066;24.742;2022-08-21T10:30:21;97494.31;;;24.66;88.46
20895;BME280;10607;42.066;24.742;2022-08-21T10:35:31;97491.88;;;24.55;88.09
20895;BME280;10607;42.066;24.742;2022-08-21T10:46:56;97500.00;;;24.63;88.60
20895;BME280;10607;42.066;24.742;2022-08-21T10:54:54;97504.50;;;24.54;87.75
20895;BME280;10607;42.066;24.742;2022-08-21T10:57:36;97499.03;;;24.46;87.30
20895;BME280;10607;42.066;24.742;2022-08-21T11:00:09;97503.88;;;24.43;89.11
20895;BME280;10607;42.066;24.742;2022-08-21T11:05:33;97504.66;;;24.35;88.98
20895;BME280;10607;42.066;24.742;2022-08-21T11:10:44;97501.34;;;24.41;87.92
20895;BME280;10607;42.066;24.742;2022-08-21T11:13:17;97498.59;;;24.33;87.61
20895;BME280;10607;42.066;24.742;2022-08-21T11:18:32;97501.13;;;24.52;87.34
20895;BME280;10607;42.066;24.742;2022-08-21T11:24:17;97493.44;;;24.66;88.73
20895;BME280;10607;42.066;24.742;2022-08-21T11:26:50;97492.97;;;24.70;88.87
20895;BME280;10607;42.066;24.742;2022-08-21T11:29:35;97496.56;;;24.79;88.71
20895;BME280;10607;42.066;24.742;2022-08-21T11:35:09;97487.75;;;24.69;89.24
20895;BME280;10607;42.066;24.742;2022-08-21T11:43:21;97482.13;;;24.54;87.72
20895;BME280;10607;42.066;24.742;2022-08-21T11:45:54;97482.28;;;24.52;87.90
20895;BME280;10607;42.066;24.742;2022-08-21T11:51:19;97478.44;;;24.55;88.48
20895;BME280;10607;42.066;24.742;2022-08-21T11:53:50;97475.22;;;24.51;89.64
20895;BME280;10607;42.066;24.742;2022-08-21T11:56:31;97482.63;;;24.57;89.58
20895;BME280;10607;42.066;24.742;2022-08-21T11:59:04;97480.13;;;24.56;88.59
20895;BME280;10607;42.066;24.742;2022-08-21T12:01:35;97468.88;;;24.61;89.30
20895;BME280;10607;42.066;24.742;2022-08-21T12:04:10;97465.66;;;24.57;89.60
20895;BME280;10607;42.066;24.742;2022-08-21T12:06:42;97465.53;;;24.67;88.53
20895;BME280;10607;42.066;24.742;2022-08-21T12:09:32;97459.63;;;24.63;88.77
20895;BME280;10607;42.066;24.742;2022-08-21T12:14:45;97457.63;;;24.39;89.55
20895;BME280;10607;42.066;24.742;2022-08-21T12:17:22;97459.13;;;24.33;89.54
20895;BME280;10607;42.066;24.742;2022-08-21T12:22:53;97451.22;;;24.32;89.59
20895;BME280;10607;42.066;24.742;2022-08-21T12:25:20;97452.88;;;24.33;90.51
20895;BME280;10607;42.066;24.742;2022-08-21T12:28:02;97449.50;;;24.31;91.58
20895;BME280;10607;42.066;24.742;2022-08-21T12:30:41;97442.41;;;24.22;90.65
20895;BME280;10607;42.066;24.742;2022-08-21T12:33:33;97443.44;;;24.29;91.74
20895;BME280;10607;42.066;24.742;2022-08-21T12:36:21;97435.81;;;24.42;91.77
20895;BME280;10607;42.066;24.742;2022-08-21T12:38:56;97431.94;;;24.45;91.28
20895;BME280;10607;42.066;24.742;2022-08-21T12:41:29;97437.16;;;24.46;92.41
20895;BME280;10607;42.066;24.742;2022-08-21T12:44:00;97437.72;;;24.50;92.55
20895;BME280;10607;42.066;24.742;2022-08-21T12:46:45;97428.53;;;24.61;92.77
20895;BME280;10607;42.066;24.742;2022-08-21T12:49:15;97418.97;;;24.66;91.69
20895;BME280;10607;42.066;24.742;2022-08-21T12:51:54;97416.94;;;24.68;91.77
20895;BME280;10607;42.066;24.742;2022-08-21T12:54:29;97421.16;;;24.71;90.91
20895;BME280;10607;42.066;24.742;2022-08-21T12:57:00;97408.88;;;24.68;91.50
20895;BME280;10607;42.066;24.742;2022-08-21T12:59:27;97409.56;;;24.70;91.84
20895;BME280;10607;42.066;24.742;2022-08-21T13:01:53;97401.34;;;24.88;91.12
20895;BME280;10607;42.066;24.742;2022-08-21T13:04:36;97408.09;;;25.01;90.62
20895;BME280;10607;42.066;24.742;2022-08-21T13:07:07;97406.78;;;25.13;90.30
20895;BME280;10607;42.066;24.742;2022-08-21T13:09:36;97402.63;;;25.27;90.59
20895;BME280;10607;42.066;24.742;2022-08-21T13:12:07;97403.63;;;25.26;90.22
20895;BME280;10607;42.066;24.742;2022-08-21T13:14:37;97407.69;;;25.38;89.41
20895;BME280;10607;42.066;24.742;2022-08-21T13:17:05;97408.03;;;25.43;90.69
20895;BME280;10607;42.066;24.742;2022-08-21T13:19:32;97408.56;;;25.55;88.78
20895;BME280;10607;42.066;24.742;2022-08-21T13:21:58;97408.19;;;25.58;89.31
20895;BME280;10607;42.066;24.742;2022-08-21T13:24:25;97410.38;;;25.79;88.27
20895;BME280;10607;42.066;24.742;2022-08-21T13:26:51;58645.81;;;-146.21;100.00
20895;BME280;10607;42.066;24.742;2022-08-21T13:29:22;58645.81;;;-146.21;100.00
20895;BME280;10607;42.066;24.742;2022-08-21T13:31:53;58645.81;;;-146.21;100.00
20895;BME280;10607;42.066;24.742;2022-08-21T13:34:24;58645.81;;;-146.21;100.00
20895;BME280;10607;42.066;24.742;2022-08-21T13:36:56;58645.81;;;-146.21;100.00
20895;BME280;10607;42.066;24.742;2022-08-21T13:39:23;58645.81;;;-146.21;100.00
20895;BME280;10607;42.066;24.742;2022-08-21T13:41:52;58645.81;;;-146.21;100.00
20895;BME280;10607;42.066;24.742;2022-08-21T13:44:23;58645.81;;;-146.21;100.00
20895;BME280;10607;42.066;24.742;2022-08-21T13:46:53;58645.81;;;-146.21;100.00
20895;BME280;10607;42.066;24.742;2022-08-21T13:49:21;58645.81;;;-146.21;100.00
20895;BME280;10607;42.066;24.742;2022-08-21T13:51:48;58645.81;;;-146.21;100.00
20895;BME280;10607;42.066;24.742;2022-08-21T13:56:46;58645.81;;;-146.21;100.00
20895;BME280;10607;42.066;24.742;2022-08-21T13:59:26;58645.81;;;-146.21;100.00
20895;BME280;10607;42.066;24.742;2022-08-21T14:01:56;58645.81;;;-146.21;100.00
20895;BME280;10607;42.066;24.742;2022-08-21T14:04:36;58645.81;;;-146.21;100.00
20895;BME280;10607;42.066;24.742;2022-08-21T14:07:14;58645.81;;;-146.21;100.00
20895;BME280;10607;42.066;24.742;2022-08-21T14:09:42;58645.81;;;-146.21;100.00
20895;BME280;10607;42.066;24.742;2022-08-21T14:15:09;58645.81;;;-146.21;100.00
20895;BME280;10607;42.066;24.742;2022-08-21T14:17:41;58645.81;;;-146.21;100.00